Pagrindinis puslapis
METAR-TAF:

METAR-TAF

Oro uostai :

Kittilä, Suomija

platuma: 67-42N, ilguma: 024-51E, Aukštis: 196 m

Dabartinis oras

Ataskaita buvo paskelbta 18 minutes, ne 18:50 UTC
Vėjas 4 kt iš Rytų
Temperatūra 13°C
Drėgmė 58%
Slėgis 1011 hPa
Matomumas 10 km arba daugiau
nėra debesų žemiau 1500 m ir nėra kamuolinių lietaus debesų

METAR: EFKT 221850Z AUTO 08004KT CAVOK 13/05 Q1011

Laikas: 22:08 (19:08 UTC)

Prognozė

Ataskaita buvo paskelbta 13 valandos ir 35 minutes, ne 05:33 UTC
Prognozė galioja nuo 22 metu 06 UTC su 22 metu 09 UTC
Vėjas 2 kt nuo kintamojo kryptimis
Matomumas 10 km arba daugiau
nėra debesų žemiau 1500 m ir nėra kamuolinių lietaus debesų

TAF: EFKT 220533Z 2206/2209 VRB02KT CAVOK

Orai ataskaitas ir orų prognozės (METAR, TAF).

turimą stotys yra geltonos ir raudonos taškus žemėlapyje.

Perkelti pele per norėdami pamatyti stoties vardą.

Tada spustelėkite, norėdami matyti oro stebėjimo ir prognozės.

Norėdami pakeisti žemėlapį: spustelėkite ant žalios mygtukų su juodo kryžiaus žemyn,; žalią mygtuką su brūkšneliu, jei norite nutolinti; arba žalių rodyklių gretimoms žemėlapius.


METAR-TAF: